Time;durP1;ratioP1;P1;durP2;ratioP2;P2;SDS_P1;SDS_P2;PMS_P1;PMS_P2;Temp;Humidity;BMP_temperature;BMP_pressure;BME280_temperature;BME280_humidity;BME280_pressure;Samples;Min_cycle;Max_cycle;Signal;HPM_P1;HPM_P2
2021/12/01 00:00:33;;;;;;;37.63;27.83;;;9.50;99.90;;;;;;5066285;28;20374;-74
2021/12/01 00:02:59;;;;;;;39.42;27.42;;;9.50;99.90;;;;;;5090370;28;20123;-76
2021/12/01 00:05:28;;;;;;;32.72;25.85;;;9.50;99.90;;;;;;5074168;28;20048;-76
2021/12/01 00:07:55;;;;;;;40.88;27.60;;;9.50;99.90;;;;;;5074697;28;20040;-76
2021/12/01 00:10:22;;;;;;;32.60;24.63;;;9.50;99.90;;;;;;5069205;28;20104;-76
2021/12/01 00:12:49;;;;;;;32.22;24.35;;;9.50;99.90;;;;;;5072652;28;20481;-77
2021/12/01 00:15:15;;;;;;;29.52;23.70;;;9.50;99.90;;;;;;5075272;28;20044;-76
2021/12/01 00:17:40;;;;;;;34.92;24.00;;;9.50;99.90;;;;;;5074240;28;20073;-76
2021/12/01 00:20:09;;;;;;;30.35;22.83;;;9.50;99.90;;;;;;5074736;28;20110;-77
2021/12/01 00:22:35;;;;;;;27.77;22.88;;;9.50;99.90;;;;;;5091413;28;20039;-75
2021/12/01 00:25:02;;;;;;;31.35;23.80;;;9.50;99.90;;;;;;5074867;28;20052;-75
2021/12/01 00:27:27;;;;;;;24.35;21.50;;;9.50;99.90;;;;;;5074545;28;20048;-75
2021/12/01 00:29:53;;;;;;;28.10;21.23;;;9.50;99.90;;;;;;5090049;28;20533;-75
2021/12/01 00:32:19;;;;;;;28.92;20.83;;;9.50;99.90;;;;;;5120521;27;20063;-74
2021/12/01 00:34:45;;;;;;;23.02;18.70;;;9.50;99.90;;;;;;5090023;28;20046;-71
2021/12/01 00:37:10;;;;;;;25.70;19.55;;;9.60;99.90;;;;;;5091556;28;20081;-73
2021/12/01 00:39:36;;;;;;;23.10;18.63;;;9.50;99.90;;;;;;5120658;27;20036;-76
2021/12/01 00:42:02;;;;;;;25.95;18.17;;;9.50;99.90;;;;;;5090494;28;20636;-72
2021/12/01 00:44:29;;;;;;;22.05;18.30;;;9.60;99.90;;;;;;5091037;28;20040;-75
2021/12/01 00:47:05;;;;;;;23.10;18.88;;;9.60;99.90;;;;;;5074019;28;20078;-76
2021/12/01 00:49:33;;;;;;;22.77;17.52;;;9.60;99.90;;;;;;5091046;28;20127;-76
2021/12/01 00:51:59;;;;;;;26.05;16.98;;;9.60;99.90;;;;;;5090873;28;20051;-75
2021/12/01 00:54:25;;;;;;;20.85;16.45;;;9.60;99.90;;;;;;5073473;28;20039;-75
2021/12/01 00:56:51;;;;;;;21.17;16.48;;;9.60;99.90;;;;;;5091614;28;20521;-75
2021/12/01 00:59:17;;;;;;;20.65;15.35;;;9.60;99.90;;;;;;5079561;28;20044;-74
2021/12/01 01:01:44;;;;;;;21.92;16.10;;;9.60;99.90;;;;;;5091148;28;20082;-73
2021/12/01 01:04:10;;;;;;;22.17;15.85;;;9.60;99.90;;;;;;5074098;28;20039;-74
2021/12/01 01:06:37;;;;;;;22.30;14.82;;;9.60;99.90;;;;;;5073565;28;20131;-73
2021/12/01 01:09:05;;;;;;;17.88;13.18;;;9.60;99.90;;;;;;5089847;28;20036;-75
2021/12/01 01:17:01;;;;;;;19.60;13.25;;;9.70;99.90;;;;;;5090190;28;20504;-74
2021/12/01 01:19:26;;;;;;;18.02;13.77;;;9.60;99.90;;;;;;5090207;28;20074;-74
2021/12/01 01:21:53;;;;;;;19.02;11.43;;;9.60;99.90;;;;;;5090600;28;20438;-74
2021/12/01 01:24:21;;;;;;;16.05;11.55;;;9.60;99.90;;;;;;5072782;28;20044;-75
2021/12/01 01:26:47;;;;;;;15.63;11.18;;;9.70;99.90;;;;;;5050184;28;20041;-74
2021/12/01 01:29:13;;;;;;;17.30;10.88;;;9.70;99.90;;;;;;5065945;28;20084;-74
2021/12/01 01:31:39;;;;;;;15.77;9.98;;;9.70;99.90;;;;;;5098809;28;20067;-74
2021/12/01 01:34:05;;;;;;;11.90;8.63;;;9.70;99.90;;;;;;5105700;28;20036;-74
2021/12/01 01:36:31;;;;;;;11.32;8.15;;;9.60;99.90;;;;;;5106087;27;20055;-74
2021/12/01 01:38:58;;;;;;;11.93;8.55;;;9.70;99.90;;;;;;5087925;28;20040;-75
2021/12/01 01:41:24;;;;;;;10.15;7.53;;;9.70;99.90;;;;;;5084528;28;20048;-75
2021/12/01 01:43:51;;;;;;;10.77;7.68;;;9.70;99.90;;;;;;5089224;28;20545;-76
2021/12/01 01:46:17;;;;;;;10.95;7.85;;;9.70;99.90;;;;;;5093000;28;20055;-75
2021/12/01 01:48:49;;;;;;;9.52;7.32;;;9.70;99.90;;;;;;5072896;28;20044;-76
2021/12/01 01:51:18;;;;;;;11.18;8.48;;;9.70;99.90;;;;;;5089987;28;20059;-77
2021/12/01 01:53:44;;;;;;;11.25;8.45;;;9.70;99.90;;;;;;5123700;27;20206;-77
2021/12/01 01:56:10;;;;;;;12.95;9.27;;;9.70;99.90;;;;;;5112525;27;20040;-72
2021/12/01 01:58:36;;;;;;;9.85;8.38;;;9.70;99.90;;;;;;5070724;28;20055;-77
2021/12/01 02:01:09;;;;;;;11.80;9.10;;;9.70;99.90;;;;;;5072823;28;20171;-74
2021/12/01 02:03:41;;;;;;;12.10;9.27;;;9.70;99.90;;;;;;5072738;28;20055;-76
2021/12/01 02:06:09;;;;;;;11.38;7.93;;;9.70;99.90;;;;;;5072372;28;20036;-77
2021/12/01 02:08:37;;;;;;;9.45;7.13;;;9.70;99.90;;;;;;5123693;27;20074;-76
2021/12/01 02:11:07;;;;;;;9.43;6.78;;;9.70;99.90;;;;;;5063773;28;20117;-74
2021/12/01 02:13:33;;;;;;;9.60;6.80;;;9.80;99.90;;;;;;5123217;27;20036;-74
2021/12/01 02:16:00;;;;;;;7.22;6.13;;;9.80;99.90;;;;;;5089252;28;20111;-75
2021/12/01 02:18:27;;;;;;;6.75;5.22;;;9.80;99.90;;;;;;5089884;28;20058;-76
2021/12/01 02:21:11;;;;;;;9.55;5.40;;;9.80;99.90;;;;;;5071603;28;20082;-75
2021/12/01 02:23:45;;;;;;;6.35;3.80;;;9.80;99.90;;;;;;5089311;28;20051;-76
2021/12/01 02:26:12;;;;;;;5.55;2.85;;;9.90;99.90;;;;;;5087394;28;20097;-75
2021/12/01 02:28:39;;;;;;;7.13;2.53;;;9.80;99.90;;;;;;5104439;28;20078;-72
2021/12/01 02:31:05;;;;;;;6.40;2.10;;;9.90;99.90;;;;;;5089342;28;20062;-80
2021/12/01 02:33:31;;;;;;;6.97;2.72;;;10.00;99.90;;;;;;5089131;28;20083;-82
2021/12/01 02:35:56;;;;;;;7.80;4.40;;;9.90;99.90;;;;;;5101655;28;20068;-77
2021/12/01 02:38:23;;;;;;;6.80;4.13;;;9.90;99.90;;;;;;5080843;28;20040;-73
2021/12/01 02:40:49;;;;;;;8.32;5.90;;;10.00;99.90;;;;;;5070716;28;20032;-79
2021/12/01 02:43:15;;;;;;;7.35;6.65;;;9.90;99.90;;;;;;5124101;28;20048;-73
2021/12/01 02:45:41;;;;;;;10.45;7.20;;;9.90;99.90;;;;;;5105048;28;20048;-76
2021/12/01 02:48:12;;;;;;;7.88;6.05;;;9.90;99.90;;;;;;5070130;28;20052;-76
2021/12/01 02:50:40;;;;;;;6.72;6.07;;;9.90;99.90;;;;;;5088741;28;20040;-73
2021/12/01 02:53:06;;;;;;;6.25;5.22;;;9.90;99.90;;;;;;5090912;28;20396;-79
2021/12/01 02:55:35;;;;;;;6.20;5.10;;;9.90;99.90;;;;;;5124872;27;20051;-80
2021/12/01 02:58:02;;;;;;;5.90;5.03;;;9.80;99.90;;;;;;5093767;28;20094;-80
2021/12/01 03:00:27;;;;;;;5.00;3.50;;;9.90;99.90;;;;;;5092802;28;20036;-78
2021/12/01 03:02:56;;;;;;;4.88;3.35;;;9.90;99.90;;;;;;5092223;28;20055;-77
2021/12/01 03:05:23;;;;;;;4.00;2.72;;;9.90;99.90;;;;;;5093277;28;20493;-71
2021/12/01 03:07:49;;;;;;;6.25;2.05;;;9.90;99.90;;;;;;5116107;27;20129;-78
2021/12/01 03:10:15;;;;;;;7.43;1.70;;;9.90;99.90;;;;;;5075719;28;20099;-79
2021/12/01 03:12:41;;;;;;;7.25;0.93;;;9.90;99.90;;;;;;5075873;28;20051;-75
2021/12/01 03:15:10;;;;;;;2.95;1.10;;;10.00;99.90;;;;;;5075463;28;20040;-77
2021/12/01 03:17:36;;;;;;;8.82;1.15;;;10.00;99.90;;;;;;5091841;28;20071;-75
2021/12/01 03:20:03;;;;;;;7.65;0.60;;;10.00;99.90;;;;;;5092380;28;20496;-75
2021/12/01 03:22:29;;;;;;;5.60;0.60;;;10.00;99.90;;;;;;5092129;28;20039;-77
2021/12/01 03:24:55;;;;;;;8.68;0.93;;;10.00;99.90;;;;;;5093855;28;20369;-76
2021/12/01 03:27:20;;;;;;;4.80;0.43;;;9.90;99.90;;;;;;5092938;28;20080;-73
2021/12/01 03:29:48;;;;;;;7.13;0.77;;;10.00;99.90;;;;;;5091319;28;20101;-73
2021/12/01 03:32:14;;;;;;;6.78;0.80;;;10.00;99.90;;;;;;5092258;28;20127;-73
2021/12/01 03:34:41;;;;;;;6.97;0.80;;;10.00;99.90;;;;;;5114646;27;20049;-75
2021/12/01 03:37:07;;;;;;;7.65;0.93;;;10.00;99.90;;;;;;5081906;28;20055;-75
2021/12/01 03:39:33;;;;;;;4.22;0.52;;;10.00;99.90;;;;;;5088038;28;20032;-75
2021/12/01 03:41:59;;;;;;;5.30;0.70;;;10.00;99.90;;;;;;5092516;28;20105;-76
2021/12/01 03:44:24;;;;;;;7.88;1.10;;;9.90;99.90;;;;;;5091173;28;20032;-74
2021/12/01 03:46:51;;;;;;;6.32;0.90;;;9.90;99.90;;;;;;5092132;28;20420;-74
2021/12/01 03:49:16;;;;;;;2.92;0.63;;;9.90;99.90;;;;;;5092085;28;20485;-74
2021/12/01 03:51:42;;;;;;;2.35;0.88;;;9.90;99.90;;;;;;5074382;28;20056;-72
2021/12/01 03:54:08;;;;;;;2.95;1.30;;;9.90;99.90;;;;;;5092084;28;20048;-78
2021/12/01 03:56:34;;;;;;;4.13;1.50;;;9.90;99.90;;;;;;5091840;28;20048;-77
2021/12/01 03:59:03;;;;;;;4.90;1.52;;;9.90;99.90;;;;;;5074716;28;20040;-74
2021/12/01 04:01:29;;;;;;;3.85;2.05;;;9.90;99.90;;;;;;5114326;27;20064;-76
2021/12/01 04:03:55;;;;;;;3.47;1.75;;;9.90;99.90;;;;;;5082200;28;20493;-75
2021/12/01 04:06:21;;;;;;;3.25;2.05;;;9.80;99.90;;;;;;5091028;28;20537;-76
2021/12/01 04:08:47;;;;;;;5.07;2.20;;;9.80;99.90;;;;;;5107683;27;20043;-77
2021/12/01 04:11:13;;;;;;;5.55;1.95;;;9.80;99.90;;;;;;5083062;28;20052;-77
2021/12/01 04:13:38;;;;;;;2.92;1.83;;;9.80;99.90;;;;;;5091505;28;20495;-71
2021/12/01 04:16:04;;;;;;;6.90;2.08;;;9.80;99.90;;;;;;5092032;28;20055;-77
2021/12/01 04:18:30;;;;;;;5.68;1.88;;;9.80;99.90;;;;;;5090698;28;20448;-70
2021/12/01 04:20:56;;;;;;;3.65;1.83;;;9.80;99.90;;;;;;5092914;28;20123;-74
2021/12/01 04:23:21;;;;;;;3.03;1.98;;;9.80;99.90;;;;;;5091547;28;20400;-74
2021/12/01 04:25:47;;;;;;;5.70;2.00;;;9.80;99.90;;;;;;5090531;28;20165;-75
2021/12/01 04:28:13;;;;;;;5.25;2.05;;;9.80;99.90;;;;;;5091391;28;20048;-74
2021/12/01 04:30:39;;;;;;;2.33;1.70;;;9.80;99.90;;;;;;5121377;27;20045;-76
2021/12/01 04:33:04;;;;;;;2.60;1.85;;;9.80;99.90;;;;;;5105933;27;20128;-76
2021/12/01 04:35:30;;;;;;;2.97;1.77;;;9.80;99.90;;;;;;5056978;28;20063;-76
2021/12/01 04:37:57;;;;;;;2.95;1.80;;;9.80;99.90;;;;;;5111965;27;20048;-78
2021/12/01 04:40:24;;;;;;;3.15;2.08;;;9.70;99.90;;;;;;5056072;28;20049;-77
2021/12/01 04:42:50;;;;;;;3.67;1.95;;;9.70;99.90;;;;;;5092231;28;20104;-75
2021/12/01 04:45:17;;;;;;;3.75;2.25;;;9.70;99.90;;;;;;5092898;28;20040;-75
2021/12/01 04:47:54;;;;;;;2.97;2.08;;;9.70;99.90;;;;;;5089782;28;20055;-75
2021/12/01 04:50:22;;;;;;;2.70;2.00;;;9.60;99.90;;;;;;5091292;28;20051;-75
2021/12/01 04:52:49;;;;;;;2.38;1.98;;;9.70;99.90;;;;;;5090563;28;20040;-75
2021/12/01 04:55:15;;;;;;;2.75;2.30;;;9.60;99.90;;;;;;5090951;28;20427;-73
2021/12/01 04:57:42;;;;;;;3.55;2.00;;;9.60;99.90;;;;;;5122655;27;20121;-75
2021/12/01 05:00:12;;;;;;;2.72;2.00;;;9.60;99.90;;;;;;5076874;28;20045;-76
2021/12/01 05:02:38;;;;;;;2.88;2.00;;;9.60;99.90;;;;;;5089732;28;20048;-75
2021/12/01 05:05:04;;;;;;;3.08;2.20;;;9.60;99.90;;;;;;5125544;27;20047;-76
2021/12/01 05:07:30;;;;;;;2.60;1.65;;;9.60;99.90;;;;;;5089743;28;20492;-76
2021/12/01 05:09:56;;;;;;;3.38;2.25;;;9.60;99.90;;;;;;5091085;28;20051;-75
2021/12/01 05:12:22;;;;;;;2.55;1.83;;;9.60;99.90;;;;;;5090444;28;20043;-74
2021/12/01 05:14:47;;;;;;;3.03;1.90;;;9.50;99.90;;;;;;5089742;28;20036;-75
2021/12/01 05:17:13;;;;;;;4.50;2.22;;;9.50;99.90;;;;;;5090050;28;20040;-76
2021/12/01 05:19:39;;;;;;;2.67;2.40;;;9.50;99.90;;;;;;5090149;28;20090;-75
2021/12/01 05:22:05;;;;;;;4.10;2.35;;;9.50;99.90;;;;;;5089723;28;20055;-75
2021/12/01 05:24:32;;;;;;;3.03;2.45;;;9.50;99.90;;;;;;5107502;28;20048;-75
2021/12/01 05:26:58;;;;;;;4.05;2.78;;;9.50;99.90;;;;;;5113158;27;20044;-74
2021/12/01 05:29:24;;;;;;;3.25;2.40;;;9.50;99.90;;;;;;5074711;28;20036;-74
2021/12/01 05:31:51;;;;;;;3.35;2.80;;;9.50;99.90;;;;;;5081869;28;20134;-75
2021/12/01 05:34:17;;;;;;;2.97;2.58;;;9.50;99.90;;;;;;5124938;27;20040;-74
2021/12/01 05:36:42;;;;;;;2.80;2.50;;;9.40;99.90;;;;;;5102735;28;20085;-74
2021/12/01 05:39:08;;;;;;;2.47;2.25;;;9.40;99.90;;;;;;5093139;28;20059;-76
2021/12/01 05:41:34;;;;;;;3.10;2.17;;;9.40;99.90;;;;;;5078807;28;20044;-76
2021/12/01 05:44:00;;;;;;;2.38;2.13;;;9.40;99.90;;;;;;5072556;28;20047;-76
2021/12/01 05:46:27;;;;;;;2.28;2.08;;;9.40;99.90;;;;;;5089298;28;20483;-75
2021/12/01 05:48:54;;;;;;;2.88;2.67;;;9.40;99.90;;;;;;5089828;28;20527;-76
2021/12/01 05:51:20;;;;;;;3.03;2.83;;;9.40;99.90;;;;;;5101172;28;20037;-75
2021/12/01 05:53:47;;;;;;;3.75;3.45;;;9.40;99.90;;;;;;5124108;27;20058;-75
2021/12/01 05:56:13;;;;;;;3.53;3.22;;;9.40;99.90;;;;;;5101524;28;20050;-75
2021/12/01 05:58:38;;;;;;;3.90;3.60;;;9.30;99.90;;;;;;5115465;27;20055;-75
2021/12/01 06:01:04;;;;;;;3.20;3.00;;;9.30;99.90;;;;;;5074744;28;20044;-75
2021/12/01 06:03:30;;;;;;;2.80;2.60;;;9.20;99.90;;;;;;5105216;28;20044;-74
2021/12/01 06:05:56;;;;;;;5.43;2.97;;;9.20;99.90;;;;;;5117585;27;20126;-78
2021/12/01 06:08:22;;;;;;;2.67;1.98;;;9.20;99.90;;;;;;5095621;28;20044;-73
2021/12/01 06:10:48;;;;;;;2.13;1.70;;;9.20;99.90;;;;;;5069694;28;20080;-75
2021/12/01 06:13:18;;;;;;;1.77;1.60;;;9.20;99.90;;;;;;5073215;28;20392;-77
2021/12/01 06:15:45;;;;;;;1.92;1.42;;;9.20;99.90;;;;;;5089069;28;20051;-76
2021/12/01 06:18:11;;;;;;;3.15;1.52;;;9.10;99.90;;;;;;5104562;28;20144;-77
2021/12/01 06:20:38;;;;;;;1.33;0.90;;;9.10;99.90;;;;;;5107769;28;20413;-78
2021/12/01 06:23:04;;;;;;;2.13;0.93;;;9.10;99.90;;;;;;5098467;28;20536;-78
2021/12/01 06:25:30;;;;;;;2.53;1.35;;;9.10;99.90;;;;;;5083500;28;20118;-79
2021/12/01 06:27:56;;;;;;;1.20;0.70;;;9.10;99.90;;;;;;5071526;28;20511;-78
2021/12/01 06:30:24;;;;;;;1.40;1.10;;;9.10;99.90;;;;;;5086986;28;20070;-73
2021/12/01 06:32:50;;;;;;;1.67;1.30;;;9.00;99.90;;;;;;5075815;28;20492;-74
2021/12/01 06:35:17;;;;;;;1.52;1.10;;;9.00;99.90;;;;;;5093542;28;20051;-75
2021/12/01 06:37:42;;;;;;;1.10;0.63;;;9.00;99.90;;;;;;5108134;28;20067;-76
2021/12/01 06:40:10;;;;;;;1.65;1.10;;;9.00;99.90;;;;;;5093198;28;20040;-75
2021/12/01 06:42:36;;;;;;;1.00;0.60;;;9.00;99.90;;;;;;5092901;28;20047;-75
2021/12/01 06:45:07;;;;;;;1.70;1.02;;;9.00;99.90;;;;;;5076854;28;20509;-75
2021/12/01 06:47:33;;;;;;;1.85;0.85;;;9.00;99.90;;;;;;5075304;28;20415;-75
2021/12/01 06:49:59;;;;;;;1.80;1.02;;;9.00;99.90;;;;;;5076083;28;20052;-76
2021/12/01 06:52:28;;;;;;;1.40;0.95;;;9.00;99.90;;;;;;5098807;28;20028;-76
2021/12/01 06:54:57;;;;;;;1.50;1.10;;;8.90;99.90;;;;;;5075695;28;20040;-75
2021/12/01 06:57:24;;;;;;;2.03;1.48;;;9.00;99.90;;;;;;5092742;28;20120;-78
2021/12/01 06:59:50;;;;;;;1.60;1.33;;;9.00;99.90;;;;;;5071567;28;20045;-77
2021/12/01 07:02:17;;;;;;;1.80;1.33;;;8.90;99.90;;;;;;5051038;28;20051;-77
2021/12/01 07:04:46;;;;;;;1.52;1.35;;;8.90;99.90;;;;;;5084016;28;20110;-75
2021/12/01 07:07:12;;;;;;;2.92;1.45;;;8.90;99.90;;;;;;5091687;28;20411;-74
2021/12/01 07:09:38;;;;;;;1.95;1.75;;;8.90;99.90;;;;;;5087067;28;20044;-76
2021/12/01 07:12:04;;;;;;;2.00;1.73;;;8.90;99.90;;;;;;5076120;28;20048;-74
2021/12/01 07:14:29;;;;;;;2.85;1.77;;;8.90;99.90;;;;;;5091609;28;20129;-72
2021/12/01 07:16:56;;;;;;;1.98;1.70;;;8.90;99.90;;;;;;5046701;28;20080;-74
2021/12/01 07:19:21;;;;;;;2.50;2.30;;;8.90;99.90;;;;;;5049559;28;20048;-73
2021/12/01 07:21:47;;;;;;;2.35;2.15;;;8.90;99.90;;;;;;5078110;28;20040;-73
2021/12/01 07:24:13;;;;;;;2.70;2.50;;;8.90;99.90;;;;;;5076048;28;20044;-74
2021/12/01 07:26:39;;;;;;;3.00;2.70;;;9.00;99.90;;;;;;5092417;28;20047;-75
2021/12/01 07:29:05;;;;;;;3.13;2.75;;;9.00;99.90;;;;;;5073938;28;20511;-72
2021/12/01 07:31:31;;;;;;;3.97;3.58;;;9.00;99.90;;;;;;5089268;28;20055;-72
2021/12/01 07:33:56;;;;;;;4.28;3.88;;;9.00;99.90;;;;;;5115901;27;20045;-75
2021/12/01 07:36:22;;;;;;;3.38;3.08;;;9.00;99.90;;;;;;5072416;28;20055;-75
2021/12/01 07:38:50;;;;;;;4.32;3.92;;;9.00;99.90;;;;;;5084918;28;20077;-75
2021/12/01 07:41:19;;;;;;;4.43;2.97;;;9.00;99.90;;;;;;5101560;28;20047;-75
2021/12/01 07:43:45;;;;;;;6.95;3.63;;;9.00;99.90;;;;;;5087181;28;20052;-75
2021/12/01 07:46:11;;;;;;;3.42;2.97;;;9.00;99.90;;;;;;5075064;28;20457;-75
2021/12/01 07:48:37;;;;;;;4.95;2.78;;;9.10;99.90;;;;;;5086097;28;20497;-82
2021/12/01 07:51:04;;;;;;;3.90;2.80;;;9.10;99.90;;;;;;5086397;28;20049;-78
2021/12/01 07:53:30;;;;;;;3.55;3.00;;;9.10;99.90;;;;;;5072091;28;20544;-74
2021/12/01 07:55:55;;;;;;;4.15;2.83;;;9.10;99.90;;;;;;5065372;28;20138;-76
2021/12/01 07:58:21;;;;;;;3.05;2.28;;;9.20;99.90;;;;;;5092062;28;20070;-75
2021/12/01 08:00:47;;;;;;;3.45;2.90;;;9.20;99.90;;;;;;5091519;28;20119;-74
2021/12/01 08:03:12;;;;;;;3.13;2.67;;;9.20;99.90;;;;;;5080871;28;20055;-74
2021/12/01 08:05:38;;;;;;;3.35;2.40;;;9.30;99.90;;;;;;5090838;28;20040;-74
2021/12/01 08:08:05;;;;;;;3.50;2.28;;;9.30;99.90;;;;;;5112273;27;20044;-74
2021/12/01 08:10:31;;;;;;;3.70;2.50;;;9.30;99.90;;;;;;5090442;28;20051;-73
2021/12/01 08:13:00;;;;;;;3.85;2.03;;;9.30;99.90;;;;;;5072172;28;20454;-73
2021/12/01 08:15:26;;;;;;;5.57;2.70;;;9.20;99.90;;;;;;5071797;28;20086;-74
2021/12/01 08:17:52;;;;;;;3.35;2.33;;;9.30;99.90;;;;;;5070957;28;20063;-72
2021/12/01 08:20:19;;;;;;;2.83;1.80;;;9.30;99.90;;;;;;5055258;28;20083;-74
2021/12/01 08:22:44;;;;;;;3.67;1.90;;;9.30;99.90;;;;;;5071352;28;20056;-73
2021/12/01 08:25:10;;;;;;;4.35;1.98;;;9.20;99.90;;;;;;5054373;28;20036;-75
2021/12/01 08:27:36;;;;;;;3.70;2.10;;;9.30;99.90;;;;;;5071520;28;20127;-75
2021/12/01 08:30:02;;;;;;;4.07;1.65;;;9.30;99.90;;;;;;5071543;28;20059;-75
2021/12/01 08:32:28;;;;;;;4.07;1.33;;;9.30;99.90;;;;;;5054096;28;20079;-74
2021/12/01 08:34:53;;;;;;;3.38;1.13;;;9.30;99.90;;;;;;5071247;28;20489;-77
2021/12/01 08:37:20;;;;;;;2.50;1.05;;;9.30;99.90;;;;;;5071023;28;20049;-76
2021/12/01 08:39:50;;;;;;;1.70;0.60;;;9.30;99.90;;;;;;5070375;28;20040;-77
2021/12/01 08:42:17;;;;;;;4.10;0.85;;;9.20;99.90;;;;;;5071712;28;20354;-76
2021/12/01 08:44:45;;;;;;;4.70;0.88;;;9.20;99.90;;;;;;5070675;28;20047;-75
2021/12/01 08:47:17;;;;;;;5.47;0.52;;;9.30;99.90;;;;;;5070687;28;20064;-74
2021/12/01 08:49:43;;;;;;;7.80;0.70;;;9.20;99.90;;;;;;5055840;28;20186;-74
2021/12/01 08:52:10;;;;;;;9.73;0.88;;;9.20;99.90;;;;;;5072955;28;20059;-75
2021/12/01 08:54:36;;;;;;;7.68;1.05;;;9.20;99.90;;;;;;5073016;28;20488;-76
2021/12/01 08:57:03;;;;;;;5.88;0.47;;;9.20;99.90;;;;;;5091385;28;20062;-73
2021/12/01 08:59:28;;;;;;;6.63;0.52;;;9.20;99.90;;;;;;5064557;28;20037;-78
2021/12/01 09:01:54;;;;;;;3.70;0.38;;;9.20;99.90;;;;;;5069602;28;20064;-74
2021/12/01 09:04:20;;;;;;;10.05;0.77;;;9.20;99.90;;;;;;5090168;27;20122;-75
2021/12/01 09:06:46;;;;;;;5.13;0.73;;;9.20;99.90;;;;;;5072953;28;20135;-76
2021/12/01 09:09:18;;;;;;;6.32;0.40;;;9.30;99.90;;;;;;5054376;28;20400;-77
2021/12/01 09:11:45;;;;;;;5.68;0.50;;;9.30;99.90;;;;;;5100899;27;20040;-72
2021/12/01 09:14:10;;;;;;;6.50;0.43;;;9.30;99.90;;;;;;5064350;28;20032;-75
2021/12/01 09:16:36;;;;;;;6.95;0.50;;;9.30;99.90;;;;;;5070098;28;20550;-73
2021/12/01 09:19:02;;;;;;;7.03;0.28;;;9.30;99.90;;;;;;5069576;28;20076;-74
2021/12/01 09:21:28;;;;;;;4.85;0.20;;;9.40;99.90;;;;;;5067807;28;20051;-76
2021/12/01 09:23:54;;;;;;;3.90;0.20;;;9.40;99.90;;;;;;5050689;28;20043;-78
2021/12/01 09:26:19;;;;;;;3.22;0.32;;;9.40;99.90;;;;;;5064908;28;20048;-75
2021/12/01 09:28:45;;;;;;;6.10;0.30;;;9.40;99.90;;;;;;5098829;28;20061;-75
2021/12/01 09:31:11;;;;;;;5.90;0.45;;;9.50;99.90;;;;;;5053023;28;20063;-75
2021/12/01 09:33:37;;;;;;;7.22;0.30;;;9.40;99.90;;;;;;5067988;28;20032;-75
2021/12/01 09:36:03;;;;;;;7.43;0.30;;;9.40;99.90;;;;;;5103240;28;20198;-76
2021/12/01 09:38:30;;;;;;;6.50;0.38;;;9.40;99.90;;;;;;5102781;28;20045;-74
2021/12/01 09:41:00;;;;;;;4.55;0.50;;;9.40;99.90;;;;;;5059279;28;20623;-75
2021/12/01 09:43:29;;;;;;;8.02;0.30;;;9.40;99.90;;;;;;5056855;28;20551;-74
2021/12/01 09:45:57;;;;;;;8.27;0.50;;;9.30;99.90;;;;;;5079096;28;20052;-74
2021/12/01 09:48:24;;;;;;;8.02;0.47;;;9.30;99.90;;;;;;5069127;28;20055;-75
2021/12/01 09:50:50;;;;;;;6.45;0.68;;;9.20;99.90;;;;;;5072651;28;20522;-77
2021/12/01 09:53:16;;;;;;;11.02;0.75;;;9.20;99.90;;;;;;5090543;28;20101;-77
2021/12/01 09:55:43;;;;;;;9.15;0.40;;;9.20;99.90;;;;;;5086516;28;20040;-73
2021/12/01 09:58:13;;;;;;;7.43;0.40;;;9.20;99.90;;;;;;5104602;27;20148;-71
2021/12/01 10:00:42;;;;;;;10.00;0.80;;;9.10;99.90;;;;;;5052901;28;20082;-71
2021/12/01 10:03:08;;;;;;;5.80;0.43;;;9.20;99.90;;;;;;5086287;28;20079;-73
2021/12/01 10:06:02;;;;;;;10.27;0.40;;;9.20;99.90;;;;;;5123918;27;20093;-76
2021/12/01 10:08:40;;;;;;;8.82;0.52;;;9.20;99.90;;;;;;5089606;28;20051;-76
2021/12/01 10:11:11;;;;;;;9.40;0.60;;;9.20;99.90;;;;;;5114323;27;20044;-76
2021/12/01 10:13:44;;;;;;;6.90;0.77;;;9.30;99.90;;;;;;5104467;28;20515;-75
2021/12/01 10:16:14;;;;;;;10.00;0.80;;;9.30;99.90;;;;;;5083816;28;20048;-76
2021/12/01 10:18:44;;;;;;;5.80;0.35;;;9.30;99.90;;;;;;5083183;28;20055;-77
2021/12/01 10:21:23;;;;;;;5.47;0.45;;;9.30;99.90;;;;;;5050052;28;20045;-73
2021/12/01 10:23:54;;;;;;;7.72;0.47;;;9.40;99.90;;;;;;5079109;28;20068;-80
2021/12/01 10:26:26;;;;;;;3.72;0.28;;;9.40;99.90;;;;;;5066957;28;20033;-71
2021/12/01 10:28:58;;;;;;;5.40;0.32;;;9.50;99.90;;;;;;5060663;28;20055;-72
2021/12/01 10:31:47;;;;;;;5.28;0.38;;;9.60;99.90;;;;;;5112871;28;20401;-68
2021/12/01 10:34:21;;;;;;;8.13;0.40;;;9.80;99.90;;;;;;5088409;28;20051;-74
2021/12/01 10:36:49;;;;;;;6.35;0.47;;;9.90;99.60;;;;;;5079575;28;20102;-77
2021/12/01 10:39:15;;;;;;;9.73;0.52;;;10.10;99.50;;;;;;5054260;28;20492;-72
2021/12/01 10:41:42;;;;;;;5.95;0.55;;;10.20;98.50;;;;;;5053479;28;20060;-78
2021/12/01 10:44:13;;;;;;;6.15;0.60;;;10.30;98.40;;;;;;5101766;28;20102;-75
2021/12/01 10:46:48;;;;;;;8.73;0.30;;;10.30;97.50;;;;;;5057161;28;20049;-77
2021/12/01 10:49:15;;;;;;;8.82;0.95;;;10.20;97.90;;;;;;5095196;28;20040;-78
2021/12/01 10:51:43;;;;;;;7.65;0.52;;;10.20;97.80;;;;;;5102550;28;20059;-72
2021/12/01 10:54:20;;;;;;;7.50;0.73;;;10.10;97.50;;;;;;5061712;28;20033;-78
2021/12/01 10:57:18;;;;;;;6.07;0.50;;;10.00;96.70;;;;;;5070400;28;20040;-75
2021/12/01 10:59:45;;;;;;;10.32;0.90;;;10.00;97.40;;;;;;5057137;28;20047;-77
2021/12/01 11:02:12;;;;;;;7.35;0.45;;;9.90;97.50;;;;;;5078341;28;20123;-76
2021/12/01 11:04:46;;;;;;;7.78;0.80;;;9.90;97.60;;;;;;5065116;28;20039;-76
2021/12/01 11:07:29;;;;;;;12.38;0.60;;;9.80;97.30;;;;;;5063497;28;20052;-70
2021/12/01 11:10:15;;;;;;;;;;;9.70;97.70;;;;;;5089803;28;20541;-76
2021/12/01 11:12:42;;;;;;;7.28;0.50;;;9.70;98.20;;;;;;5072165;28;20433;-75
2021/12/01 11:15:38;;;;;;;7.50;0.63;;;9.70;98.30;;;;;;5072523;28;20044;-75
2021/12/01 11:18:05;;;;;;;11.70;1.00;;;9.70;98.30;;;;;;5088885;28;20409;-74
2021/12/01 11:20:52;;;;;;;11.18;1.02;;;9.60;98.40;;;;;;5071991;28;20106;-76
2021/12/01 11:23:27;;;;;;;9.52;0.70;;;9.60;98.60;;;;;;5086953;28;20045;-77
2021/12/01 11:26:08;;;;;;;12.70;1.38;;;9.60;98.70;;;;;;5086396;28;20569;-74
2021/12/01 11:29:01;;;;;;;9.70;1.10;;;9.50;98.40;;;;;;5066234;28;20036;-71
2021/12/01 11:31:33;;;;;;;10.60;0.65;;;9.50;98.60;;;;;;5047719;28;20048;-69
2021/12/01 11:34:03;;;;;;;15.27;1.33;;;9.50;98.40;;;;;;5065734;28;20044;-71
2021/12/01 11:36:50;;;;;;;13.77;1.73;;;9.50;98.40;;;;;;5072128;28;20052;-70
2021/12/01 11:39:22;;;;;;;9.65;0.70;;;9.60;98.10;;;;;;5061697;28;20083;-77
2021/12/01 11:41:49;;;;;;;13.70;0.90;;;9.50;98.30;;;;;;5064103;28;20041;-78
2021/12/01 11:44:18;;;;;;;14.68;1.70;;;9.50;98.40;;;;;;5086212;28;20507;-71
2021/12/01 11:46:44;;;;;;;10.32;1.23;;;9.60;98.20;;;;;;5071210;28;20055;-76
2021/12/01 11:49:12;;;;;;;12.60;1.15;;;9.60;98.00;;;;;;5126319;27;20474;-71
2021/12/01 11:51:55;;;;;;;13.13;1.00;;;9.60;98.00;;;;;;5090935;28;20083;-77
2021/12/01 11:54:23;;;;;;;13.75;1.40;;;9.60;97.80;;;;;;5092407;28;20048;-72
2021/12/01 11:56:56;;;;;;;12.40;1.33;;;9.50;97.80;;;;;;5098285;28;20040;-71
2021/12/01 11:59:27;;;;;;;12.02;1.70;;;9.50;97.70;;;;;;5100777;28;20044;-77
2021/12/01 12:01:57;;;;;;;14.95;1.42;;;9.50;97.80;;;;;;5092227;28;20435;-74
2021/12/01 12:04:30;;;;;;;11.20;1.08;;;9.50;98.40;;;;;;5091970;28;20669;-71
2021/12/01 12:07:06;;;;;;;12.82;1.58;;;9.50;98.60;;;;;;5091610;28;20047;-75
2021/12/01 12:09:33;;;;;;;12.07;1.35;;;9.40;98.90;;;;;;5090936;28;20068;-77
2021/12/01 12:11:58;;;;;;;13.15;1.38;;;9.40;98.70;;;;;;5073987;28;20550;-71
2021/12/01 12:14:36;;;;;;;12.40;0.90;;;9.40;98.80;;;;;;5080730;28;20048;-81
2021/12/01 12:17:06;;;;;;;12.68;1.35;;;9.40;99.20;;;;;;5090670;28;20052;-79
2021/12/01 12:20:03;;;;;;;15.25;2.00;;;9.30;99.40;;;;;;5091860;28;20044;-71
2021/12/01 12:22:36;;;;;;;12.25;1.23;;;9.20;99.50;;;;;;5090943;28;20051;-87
2021/12/01 12:25:06;;;;;;;10.90;0.98;;;9.20;99.20;;;;;;5086177;28;20392;-70
2021/12/01 12:27:36;;;;;;;14.15;1.38;;;9.20;99.20;;;;;;5126094;27;20055;-83
2021/12/01 12:30:34;;;;;;;14.98;1.23;;;9.20;98.20;;;;;;5092954;28;20090;-71
2021/12/01 12:33:26;;;;;;;7.35;0.90;;;9.20;97.50;;;;;;5087234;28;20070;-85
2021/12/01 12:35:56;;;;;;;11.70;1.45;;;9.30;97.30;;;;;;5125034;27;20043;-74
2021/12/01 12:38:22;;;;;;;13.00;1.50;;;9.40;96.90;;;;;;5092668;28;20048;-78
2021/12/01 12:40:59;;;;;;;13.07;1.35;;;9.60;96.00;;;;;;5110479;28;20043;-89
2021/12/01 12:43:25;;;;;;;11.00;0.98;;;9.70;95.60;;;;;;5092226;28;20132;-88
2021/12/01 12:46:17;;;;;;;13.02;0.98;;;9.80;94.90;;;;;;5058000;28;20044;-86
2021/12/01 12:48:49;;;;;;;13.00;1.40;;;9.90;93.10;;;;;;5085712;28;20128;-74
2021/12/01 12:51:32;;;;;;;11.10;1.10;;;10.00;93.20;;;;;;5087095;28;20040;-89
2021/12/01 12:54:01;;;;;;;5.38;0.60;;;10.20;93.00;;;;;;5092307;28;20048;-87
2021/12/01 12:56:42;;;;;;;14.73;1.40;;;10.80;90.90;;;;;;5091999;28;20449;-78
2021/12/01 12:59:22;;;;;;;10.77;1.13;;;11.40;90.60;;;;;;5092364;28;20130;-90
2021/12/01 13:02:15;;;;;;;8.60;0.88;;;11.80;87.10;;;;;;5092211;28;20032;-91
2021/12/01 13:07:36;;;;;;;11.80;0.60;;;11.40;86.30;;;;;;5092648;28;20052;-79